sensor_id;sensor_type;location;lat;lon;timestamp;P1;durP1;ratioP1;P2;durP2;ratioP2
34353;SDS011;20618;0.000;0.000;2024-01-27T00:00:09;9.43;;;3.42;;
34353;SDS011;20618;0.000;0.000;2024-01-27T00:02:36;9.55;;;2.72;;
34353;SDS011;20618;0.000;0.000;2024-01-27T00:05:02;10.52;;;2.92;;
34353;SDS011;20618;0.000;0.000;2024-01-27T00:07:28;10.95;;;3.13;;
34353;SDS011;20618;0.000;0.000;2024-01-27T00:09:55;9.27;;;2.45;;
34353;SDS011;20618;0.000;0.000;2024-01-27T00:12:21;9.90;;;2.38;;
34353;SDS011;20618;0.000;0.000;2024-01-27T00:14:47;11.98;;;3.17;;
34353;SDS011;20618;0.000;0.000;2024-01-27T00:17:13;10.00;;;2.78;;
34353;SDS011;20618;0.000;0.000;2024-01-27T00:19:40;7.75;;;2.90;;
34353;SDS011;20618;0.000;0.000;2024-01-27T00:22:06;12.48;;;2.97;;
34353;SDS011;20618;0.000;0.000;2024-01-27T00:24:33;11.38;;;3.20;;
34353;SDS011;20618;0.000;0.000;2024-01-27T00:27:00;9.18;;;2.83;;
34353;SDS011;20618;0.000;0.000;2024-01-27T00:29:26;14.15;;;3.55;;
34353;SDS011;20618;0.000;0.000;2024-01-27T00:31:52;8.80;;;2.90;;
34353;SDS011;20618;0.000;0.000;2024-01-27T00:34:20;10.00;;;2.80;;
34353;SDS011;20618;0.000;0.000;2024-01-27T00:36:46;11.13;;;3.10;;
34353;SDS011;20618;0.000;0.000;2024-01-27T00:39:15;8.68;;;2.50;;
34353;SDS011;20618;0.000;0.000;2024-01-27T00:41:41;13.88;;;3.03;;
34353;SDS011;20618;0.000;0.000;2024-01-27T00:44:08;7.85;;;2.50;;
34353;SDS011;20618;0.000;0.000;2024-01-27T00:46:34;10.18;;;2.90;;
34353;SDS011;20618;0.000;0.000;2024-01-27T00:49:00;8.73;;;3.13;;
34353;SDS011;20618;0.000;0.000;2024-01-27T00:51:27;10.07;;;2.65;;
34353;SDS011;20618;0.000;0.000;2024-01-27T00:53:53;11.13;;;3.13;;
34353;SDS011;20618;0.000;0.000;2024-01-27T00:56:19;8.95;;;2.63;;
34353;SDS011;20618;0.000;0.000;2024-01-27T00:58:45;9.98;;;2.47;;
34353;SDS011;20618;0.000;0.000;2024-01-27T01:01:12;9.05;;;2.38;;
34353;SDS011;20618;0.000;0.000;2024-01-27T01:03:38;8.35;;;2.55;;
34353;SDS011;20618;0.000;0.000;2024-01-27T01:06:04;8.15;;;2.45;;
34353;SDS011;20618;0.000;0.000;2024-01-27T01:08:31;9.90;;;2.80;;
34353;SDS011;20618;0.000;0.000;2024-01-27T01:10:57;10.50;;;2.58;;
34353;SDS011;20618;0.000;0.000;2024-01-27T01:13:23;10.43;;;2.60;;
34353;SDS011;20618;0.000;0.000;2024-01-27T01:15:49;7.13;;;2.42;;
34353;SDS011;20618;0.000;0.000;2024-01-27T01:18:16;8.90;;;2.63;;
34353;SDS011;20618;0.000;0.000;2024-01-27T01:20:42;9.23;;;3.10;;
34353;SDS011;20618;0.000;0.000;2024-01-27T01:23:08;9.18;;;2.85;;
34353;SDS011;20618;0.000;0.000;2024-01-27T01:25:34;9.38;;;2.83;;
34353;SDS011;20618;0.000;0.000;2024-01-27T01:28:00;10.38;;;2.45;;
34353;SDS011;20618;0.000;0.000;2024-01-27T01:30:26;8.60;;;2.63;;
34353;SDS011;20618;0.000;0.000;2024-01-27T01:32:53;9.88;;;2.47;;
34353;SDS011;20618;0.000;0.000;2024-01-27T01:35:19;8.63;;;2.33;;
34353;SDS011;20618;0.000;0.000;2024-01-27T01:37:45;10.38;;;2.95;;
34353;SDS011;20618;0.000;0.000;2024-01-27T01:40:13;8.55;;;2.65;;
34353;SDS011;20618;0.000;0.000;2024-01-27T01:42:40;7.72;;;2.30;;
34353;SDS011;20618;0.000;0.000;2024-01-27T01:45:07;7.70;;;2.55;;
34353;SDS011;20618;0.000;0.000;2024-01-27T01:47:33;7.97;;;2.40;;
34353;SDS011;20618;0.000;0.000;2024-01-27T01:50:00;8.60;;;2.45;;
34353;SDS011;20618;0.000;0.000;2024-01-27T01:52:26;7.78;;;2.67;;
34353;SDS011;20618;0.000;0.000;2024-01-27T01:54:52;7.93;;;2.90;;
34353;SDS011;20618;0.000;0.000;2024-01-27T01:57:18;8.70;;;2.55;;
34353;SDS011;20618;0.000;0.000;2024-01-27T01:59:44;11.43;;;2.83;;
34353;SDS011;20618;0.000;0.000;2024-01-27T02:02:11;6.65;;;2.40;;
34353;SDS011;20618;0.000;0.000;2024-01-27T02:04:44;8.80;;;2.60;;
34353;SDS011;20618;0.000;0.000;2024-01-27T02:07:13;7.43;;;2.83;;
34353;SDS011;20618;0.000;0.000;2024-01-27T02:09:40;8.65;;;3.00;;
34353;SDS011;20618;0.000;0.000;2024-01-27T02:12:06;6.82;;;2.67;;
34353;SDS011;20618;0.000;0.000;2024-01-27T02:14:33;8.02;;;2.30;;
34353;SDS011;20618;0.000;0.000;2024-01-27T02:16:59;6.15;;;2.55;;
34353;SDS011;20618;0.000;0.000;2024-01-27T02:19:25;6.75;;;2.40;;
34353;SDS011;20618;0.000;0.000;2024-01-27T02:21:51;6.65;;;2.05;;
34353;SDS011;20618;0.000;0.000;2024-01-27T02:24:17;6.20;;;2.17;;
34353;SDS011;20618;0.000;0.000;2024-01-27T02:26:43;8.65;;;2.58;;
34353;SDS011;20618;0.000;0.000;2024-01-27T02:29:10;8.95;;;2.13;;
34353;SDS011;20618;0.000;0.000;2024-01-27T02:31:36;6.35;;;2.58;;
34353;SDS011;20618;0.000;0.000;2024-01-27T02:34:02;8.68;;;2.80;;
34353;SDS011;20618;0.000;0.000;2024-01-27T02:36:28;6.38;;;2.47;;
34353;SDS011;20618;0.000;0.000;2024-01-27T02:38:54;7.35;;;2.80;;
34353;SDS011;20618;0.000;0.000;2024-01-27T02:41:20;10.80;;;2.92;;
34353;SDS011;20618;0.000;0.000;2024-01-27T02:43:46;9.18;;;2.88;;
34353;SDS011;20618;0.000;0.000;2024-01-27T02:46:13;10.88;;;2.90;;
34353;SDS011;20618;0.000;0.000;2024-01-27T02:48:41;7.88;;;3.08;;
34353;SDS011;20618;0.000;0.000;2024-01-27T02:51:10;10.90;;;2.78;;
34353;SDS011;20618;0.000;0.000;2024-01-27T02:53:36;7.88;;;2.58;;
34353;SDS011;20618;0.000;0.000;2024-01-27T02:56:05;6.93;;;2.00;;
34353;SDS011;20618;0.000;0.000;2024-01-27T02:58:33;7.30;;;2.45;;
34353;SDS011;20618;0.000;0.000;2024-01-27T03:00:59;7.97;;;2.67;;
34353;SDS011;20618;0.000;0.000;2024-01-27T03:03:25;8.48;;;2.67;;
34353;SDS011;20618;0.000;0.000;2024-01-27T03:05:51;8.07;;;2.13;;
34353;SDS011;20618;0.000;0.000;2024-01-27T03:08:17;9.52;;;2.30;;
34353;SDS011;20618;0.000;0.000;2024-01-27T03:10:43;7.18;;;2.65;;
34353;SDS011;20618;0.000;0.000;2024-01-27T03:13:09;7.93;;;2.45;;
34353;SDS011;20618;0.000;0.000;2024-01-27T03:15:36;6.70;;;2.15;;
34353;SDS011;20618;0.000;0.000;2024-01-27T03:18:03;7.32;;;2.22;;
34353;SDS011;20618;0.000;0.000;2024-01-27T03:20:29;7.18;;;2.40;;
34353;SDS011;20618;0.000;0.000;2024-01-27T03:22:58;9.23;;;2.70;;
34353;SDS011;20618;0.000;0.000;2024-01-27T03:25:24;11.45;;;3.03;;
34353;SDS011;20618;0.000;0.000;2024-01-27T03:27:53;9.07;;;2.40;;
34353;SDS011;20618;0.000;0.000;2024-01-27T03:30:20;9.90;;;2.80;;
34353;SDS011;20618;0.000;0.000;2024-01-27T03:32:46;6.93;;;2.35;;
34353;SDS011;20618;0.000;0.000;2024-01-27T03:35:13;7.22;;;2.30;;
34353;SDS011;20618;0.000;0.000;2024-01-27T03:37:39;7.70;;;2.70;;
34353;SDS011;20618;0.000;0.000;2024-01-27T03:40:06;6.95;;;2.58;;
34353;SDS011;20618;0.000;0.000;2024-01-27T03:42:32;6.35;;;2.90;;
34353;SDS011;20618;0.000;0.000;2024-01-27T03:44:58;9.40;;;2.28;;
34353;SDS011;20618;0.000;0.000;2024-01-27T03:47:24;8.35;;;2.22;;
34353;SDS011;20618;0.000;0.000;2024-01-27T03:49:50;6.55;;;2.28;;
34353;SDS011;20618;0.000;0.000;2024-01-27T03:52:17;9.52;;;2.90;;
34353;SDS011;20618;0.000;0.000;2024-01-27T03:54:43;7.22;;;2.53;;
34353;SDS011;20618;0.000;0.000;2024-01-27T03:57:09;10.32;;;2.33;;
34353;SDS011;20618;0.000;0.000;2024-01-27T03:59:35;6.97;;;2.40;;
34353;SDS011;20618;0.000;0.000;2024-01-27T04:02:01;5.43;;;2.10;;
34353;SDS011;20618;0.000;0.000;2024-01-27T04:04:27;7.40;;;2.58;;
34353;SDS011;20618;0.000;0.000;2024-01-27T04:06:54;7.97;;;2.50;;
34353;SDS011;20618;0.000;0.000;2024-01-27T04:09:20;7.50;;;2.30;;
34353;SDS011;20618;0.000;0.000;2024-01-27T04:11:46;7.50;;;2.85;;
34353;SDS011;20618;0.000;0.000;2024-01-27T04:14:12;6.82;;;2.70;;
34353;SDS011;20618;0.000;0.000;2024-01-27T04:16:39;7.47;;;2.45;;
34353;SDS011;20618;0.000;0.000;2024-01-27T04:19:05;8.25;;;2.80;;
34353;SDS011;20618;0.000;0.000;2024-01-27T04:21:31;7.07;;;2.70;;
34353;SDS011;20618;0.000;0.000;2024-01-27T04:23:57;6.32;;;2.00;;
34353;SDS011;20618;0.000;0.000;2024-01-27T04:26:23;7.00;;;2.50;;
34353;SDS011;20618;0.000;0.000;2024-01-27T04:28:49;4.93;;;2.17;;
34353;SDS011;20618;0.000;0.000;2024-01-27T04:31:15;7.28;;;2.33;;
34353;SDS011;20618;0.000;0.000;2024-01-27T04:33:42;7.40;;;2.38;;
34353;SDS011;20618;0.000;0.000;2024-01-27T04:36:08;6.57;;;2.30;;
34353;SDS011;20618;0.000;0.000;2024-01-27T04:38:35;7.20;;;2.50;;
34353;SDS011;20618;0.000;0.000;2024-01-27T04:41:01;6.00;;;2.40;;
34353;SDS011;20618;0.000;0.000;2024-01-27T04:43:28;5.75;;;2.35;;
34353;SDS011;20618;0.000;0.000;2024-01-27T04:45:54;7.00;;;2.17;;
34353;SDS011;20618;0.000;0.000;2024-01-27T04:48:20;6.45;;;2.20;;
34353;SDS011;20618;0.000;0.000;2024-01-27T04:50:46;7.25;;;2.47;;
34353;SDS011;20618;0.000;0.000;2024-01-27T04:53:13;6.93;;;2.53;;
34353;SDS011;20618;0.000;0.000;2024-01-27T04:55:39;5.70;;;2.47;;
34353;SDS011;20618;0.000;0.000;2024-01-27T04:58:06;8.30;;;2.47;;
34353;SDS011;20618;0.000;0.000;2024-01-27T05:00:32;7.45;;;2.25;;
34353;SDS011;20618;0.000;0.000;2024-01-27T05:02:58;8.88;;;2.75;;
34353;SDS011;20618;0.000;0.000;2024-01-27T05:05:29;5.13;;;2.20;;
34353;SDS011;20618;0.000;0.000;2024-01-27T05:07:55;5.07;;;2.08;;
34353;SDS011;20618;0.000;0.000;2024-01-27T05:10:21;9.05;;;2.60;;
34353;SDS011;20618;0.000;0.000;2024-01-27T05:12:48;8.60;;;2.30;;
34353;SDS011;20618;0.000;0.000;2024-01-27T05:15:14;7.72;;;2.90;;
34353;SDS011;20618;0.000;0.000;2024-01-27T05:17:40;7.72;;;2.50;;
34353;SDS011;20618;0.000;0.000;2024-01-27T05:20:06;7.15;;;2.25;;
34353;SDS011;20618;0.000;0.000;2024-01-27T05:22:33;6.55;;;2.55;;
34353;SDS011;20618;0.000;0.000;2024-01-27T05:24:59;7.30;;;2.30;;
34353;SDS011;20618;0.000;0.000;2024-01-27T05:27:25;6.22;;;2.22;;
34353;SDS011;20618;0.000;0.000;2024-01-27T05:29:51;7.60;;;2.45;;
34353;SDS011;20618;0.000;0.000;2024-01-27T05:32:17;6.50;;;2.05;;
34353;SDS011;20618;0.000;0.000;2024-01-27T05:34:44;6.45;;;2.30;;
34353;SDS011;20618;0.000;0.000;2024-01-27T05:37:10;8.68;;;2.20;;
34353;SDS011;20618;0.000;0.000;2024-01-27T05:39:38;8.13;;;2.35;;
34353;SDS011;20618;0.000;0.000;2024-01-27T05:42:04;7.00;;;2.30;;
34353;SDS011;20618;0.000;0.000;2024-01-27T05:44:30;8.00;;;2.10;;
34353;SDS011;20618;0.000;0.000;2024-01-27T05:46:56;7.80;;;3.13;;
34353;SDS011;20618;0.000;0.000;2024-01-27T05:49:22;9.07;;;2.60;;
34353;SDS011;20618;0.000;0.000;2024-01-27T05:51:49;6.85;;;2.13;;
34353;SDS011;20618;0.000;0.000;2024-01-27T05:54:15;5.65;;;2.40;;
34353;SDS011;20618;0.000;0.000;2024-01-27T05:56:42;8.30;;;2.20;;
34353;SDS011;20618;0.000;0.000;2024-01-27T05:59:08;7.20;;;2.60;;
34353;SDS011;20618;0.000;0.000;2024-01-27T06:01:35;6.18;;;2.38;;
34353;SDS011;20618;0.000;0.000;2024-01-27T06:04:01;5.95;;;2.03;;
34353;SDS011;20618;0.000;0.000;2024-01-27T06:06:27;7.90;;;2.50;;
34353;SDS011;20618;0.000;0.000;2024-01-27T06:08:53;8.43;;;2.00;;
34353;SDS011;20618;0.000;0.000;2024-01-27T06:11:26;5.05;;;2.55;;
34353;SDS011;20618;0.000;0.000;2024-01-27T06:13:52;8.32;;;2.40;;
34353;SDS011;20618;0.000;0.000;2024-01-27T06:16:18;6.03;;;2.47;;
34353;SDS011;20618;0.000;0.000;2024-01-27T06:18:44;8.23;;;2.30;;
34353;SDS011;20618;0.000;0.000;2024-01-27T06:21:11;6.65;;;2.45;;
34353;SDS011;20618;0.000;0.000;2024-01-27T06:23:37;6.57;;;2.38;;
34353;SDS011;20618;0.000;0.000;2024-01-27T06:26:06;6.60;;;2.08;;
34353;SDS011;20618;0.000;0.000;2024-01-27T06:28:32;6.45;;;2.13;;
34353;SDS011;20618;0.000;0.000;2024-01-27T06:31:00;8.13;;;2.78;;
34353;SDS011;20618;0.000;0.000;2024-01-27T06:33:26;6.32;;;2.60;;
34353;SDS011;20618;0.000;0.000;2024-01-27T06:35:53;6.82;;;2.50;;
34353;SDS011;20618;0.000;0.000;2024-01-27T06:38:19;5.03;;;2.03;;
34353;SDS011;20618;0.000;0.000;2024-01-27T06:40:45;5.75;;;2.30;;
34353;SDS011;20618;0.000;0.000;2024-01-27T06:43:12;5.75;;;2.25;;
34353;SDS011;20618;0.000;0.000;2024-01-27T06:45:38;7.25;;;2.55;;
34353;SDS011;20618;0.000;0.000;2024-01-27T06:48:05;5.85;;;2.10;;
34353;SDS011;20618;0.000;0.000;2024-01-27T06:50:31;7.00;;;2.25;;
34353;SDS011;20618;0.000;0.000;2024-01-27T06:52:58;5.20;;;1.90;;
34353;SDS011;20618;0.000;0.000;2024-01-27T06:55:24;6.63;;;2.50;;
34353;SDS011;20618;0.000;0.000;2024-01-27T06:57:50;5.35;;;2.22;;
34353;SDS011;20618;0.000;0.000;2024-01-27T07:00:16;7.30;;;2.30;;
34353;SDS011;20618;0.000;0.000;2024-01-27T07:02:43;6.20;;;2.20;;
34353;SDS011;20618;0.000;0.000;2024-01-27T07:05:09;4.82;;;2.05;;
34353;SDS011;20618;0.000;0.000;2024-01-27T07:07:35;5.05;;;2.10;;
34353;SDS011;20618;0.000;0.000;2024-01-27T07:10:01;8.15;;;2.40;;
34353;SDS011;20618;0.000;0.000;2024-01-27T07:12:28;6.28;;;1.98;;
34353;SDS011;20618;0.000;0.000;2024-01-27T07:14:54;7.15;;;2.92;;
34353;SDS011;20618;0.000;0.000;2024-01-27T07:17:20;5.75;;;2.20;;
34353;SDS011;20618;0.000;0.000;2024-01-27T07:19:47;7.63;;;2.22;;
34353;SDS011;20618;0.000;0.000;2024-01-27T07:22:13;4.47;;;2.10;;
34353;SDS011;20618;0.000;0.000;2024-01-27T07:24:39;5.45;;;2.15;;
34353;SDS011;20618;0.000;0.000;2024-01-27T07:27:06;6.57;;;2.42;;
34353;SDS011;20618;0.000;0.000;2024-01-27T07:29:32;5.22;;;2.13;;
34353;SDS011;20618;0.000;0.000;2024-01-27T07:31:58;5.75;;;2.00;;
34353;SDS011;20618;0.000;0.000;2024-01-27T07:34:24;6.35;;;2.20;;
34353;SDS011;20618;0.000;0.000;2024-01-27T07:36:50;6.68;;;2.92;;
34353;SDS011;20618;0.000;0.000;2024-01-27T07:39:17;5.38;;;2.00;;
34353;SDS011;20618;0.000;0.000;2024-01-27T07:41:43;5.15;;;2.00;;
34353;SDS011;20618;0.000;0.000;2024-01-27T07:44:09;6.22;;;2.25;;
34353;SDS011;20618;0.000;0.000;2024-01-27T07:46:37;5.75;;;2.45;;
34353;SDS011;20618;0.000;0.000;2024-01-27T07:49:03;6.63;;;2.30;;
34353;SDS011;20618;0.000;0.000;2024-01-27T07:51:29;7.35;;;2.40;;
34353;SDS011;20618;0.000;0.000;2024-01-27T07:53:55;5.63;;;1.83;;
34353;SDS011;20618;0.000;0.000;2024-01-27T07:56:22;4.30;;;1.95;;
34353;SDS011;20618;0.000;0.000;2024-01-27T07:58:48;5.20;;;2.20;;
34353;SDS011;20618;0.000;0.000;2024-01-27T08:01:14;5.63;;;2.20;;
34353;SDS011;20618;0.000;0.000;2024-01-27T08:03:41;6.70;;;2.60;;
34353;SDS011;20618;0.000;0.000;2024-01-27T08:06:10;6.95;;;2.25;;
34353;SDS011;20618;0.000;0.000;2024-01-27T08:08:36;5.95;;;2.13;;
34353;SDS011;20618;0.000;0.000;2024-01-27T08:11:02;6.03;;;2.55;;
34353;SDS011;20618;0.000;0.000;2024-01-27T08:13:29;7.38;;;2.08;;
34353;SDS011;20618;0.000;0.000;2024-01-27T08:15:55;7.50;;;2.30;;
34353;SDS011;20618;0.000;0.000;2024-01-27T08:18:21;6.72;;;2.45;;
34353;SDS011;20618;0.000;0.000;2024-01-27T08:20:47;5.97;;;2.08;;
34353;SDS011;20618;0.000;0.000;2024-01-27T08:23:13;7.30;;;2.30;;
34353;SDS011;20618;0.000;0.000;2024-01-27T08:25:40;4.55;;;1.90;;
34353;SDS011;20618;0.000;0.000;2024-01-27T08:28:06;5.15;;;1.98;;
34353;SDS011;20618;0.000;0.000;2024-01-27T08:30:32;8.65;;;2.30;;
34353;SDS011;20618;0.000;0.000;2024-01-27T08:32:58;7.10;;;2.45;;
34353;SDS011;20618;0.000;0.000;2024-01-27T08:35:24;6.05;;;2.25;;
34353;SDS011;20618;0.000;0.000;2024-01-27T08:37:50;7.95;;;2.30;;
34353;SDS011;20618;0.000;0.000;2024-01-27T08:40:16;4.55;;;2.20;;
34353;SDS011;20618;0.000;0.000;2024-01-27T08:42:43;5.32;;;2.05;;
34353;SDS011;20618;0.000;0.000;2024-01-27T08:45:09;6.57;;;2.20;;
34353;SDS011;20618;0.000;0.000;2024-01-27T08:47:35;5.45;;;2.22;;
34353;SDS011;20618;0.000;0.000;2024-01-27T08:50:01;4.72;;;1.83;;
34353;SDS011;20618;0.000;0.000;2024-01-27T08:52:27;6.18;;;2.10;;
34353;SDS011;20618;0.000;0.000;2024-01-27T08:54:53;5.40;;;2.20;;
34353;SDS011;20618;0.000;0.000;2024-01-27T08:57:20;4.50;;;2.00;;
34353;SDS011;20618;0.000;0.000;2024-01-27T08:59:46;6.45;;;2.17;;
34353;SDS011;20618;0.000;0.000;2024-01-27T09:02:12;4.53;;;2.28;;
34353;SDS011;20618;0.000;0.000;2024-01-27T09:04:38;6.13;;;2.22;;
34353;SDS011;20618;0.000;0.000;2024-01-27T09:07:04;4.60;;;1.98;;
34353;SDS011;20618;0.000;0.000;2024-01-27T09:09:30;6.00;;;2.38;;
34353;SDS011;20618;0.000;0.000;2024-01-27T09:11:57;4.72;;;2.25;;
34353;SDS011;20618;0.000;0.000;2024-01-27T09:14:23;7.50;;;2.35;;
34353;SDS011;20618;0.000;0.000;2024-01-27T09:16:49;5.63;;;2.00;;
34353;SDS011;20618;0.000;0.000;2024-01-27T09:19:17;5.88;;;2.20;;
34353;SDS011;20618;0.000;0.000;2024-01-27T09:21:43;4.47;;;1.92;;
34353;SDS011;20618;0.000;0.000;2024-01-27T09:24:09;6.30;;;2.45;;
34353;SDS011;20618;0.000;0.000;2024-01-27T09:26:36;4.82;;;2.05;;
34353;SDS011;20618;0.000;0.000;2024-01-27T09:29:02;7.65;;;2.20;;
34353;SDS011;20618;0.000;0.000;2024-01-27T09:31:28;6.57;;;2.08;;
34353;SDS011;20618;0.000;0.000;2024-01-27T09:33:54;6.32;;;2.05;;
34353;SDS011;20618;0.000;0.000;2024-01-27T09:36:21;5.72;;;2.25;;
34353;SDS011;20618;0.000;0.000;2024-01-27T09:38:47;6.25;;;2.00;;
34353;SDS011;20618;0.000;0.000;2024-01-27T09:41:14;5.35;;;2.55;;
34353;SDS011;20618;0.000;0.000;2024-01-27T09:43:44;6.53;;;2.28;;
34353;SDS011;20618;0.000;0.000;2024-01-27T09:46:11;5.63;;;2.22;;
34353;SDS011;20618;0.000;0.000;2024-01-27T09:48:37;4.93;;;2.35;;
34353;SDS011;20618;0.000;0.000;2024-01-27T09:51:04;5.30;;;2.10;;
34353;SDS011;20618;0.000;0.000;2024-01-27T09:53:30;6.18;;;2.03;;
34353;SDS011;20618;0.000;0.000;2024-01-27T09:55:57;5.90;;;2.35;;
34353;SDS011;20618;0.000;0.000;2024-01-27T09:58:28;5.93;;;2.13;;
34353;SDS011;20618;0.000;0.000;2024-01-27T10:00:58;5.05;;;2.03;;
34353;SDS011;20618;0.000;0.000;2024-01-27T10:03:25;5.55;;;1.88;;
34353;SDS011;20618;0.000;0.000;2024-01-27T10:05:56;5.68;;;2.15;;
34353;SDS011;20618;0.000;0.000;2024-01-27T10:08:23;4.65;;;1.90;;
34353;SDS011;20618;0.000;0.000;2024-01-27T10:10:58;4.18;;;1.80;;
34353;SDS011;20618;0.000;0.000;2024-01-27T10:13:25;5.05;;;2.20;;
34353;SDS011;20618;0.000;0.000;2024-01-27T10:16:07;5.60;;;2.10;;
34353;SDS011;20618;0.000;0.000;2024-01-27T10:18:34;6.80;;;2.30;;
34353;SDS011;20618;0.000;0.000;2024-01-27T10:21:01;5.13;;;2.10;;
34353;SDS011;20618;0.000;0.000;2024-01-27T10:23:40;5.78;;;2.38;;
34353;SDS011;20618;0.000;0.000;2024-01-27T10:26:09;3.95;;;1.60;;
34353;SDS011;20618;0.000;0.000;2024-01-27T10:28:36;5.68;;;2.13;;
34353;SDS011;20618;0.000;0.000;2024-01-27T10:31:11;4.40;;;1.83;;
34353;SDS011;20618;0.000;0.000;2024-01-27T10:33:50;4.95;;;1.80;;
34353;SDS011;20618;0.000;0.000;2024-01-27T10:36:17;6.75;;;2.10;;
34353;SDS011;20618;0.000;0.000;2024-01-27T10:38:43;4.57;;;1.80;;
34353;SDS011;20618;0.000;0.000;2024-01-27T10:41:09;5.35;;;2.13;;
34353;SDS011;20618;0.000;0.000;2024-01-27T10:43:36;5.07;;;1.88;;
34353;SDS011;20618;0.000;0.000;2024-01-27T10:46:06;5.03;;;2.05;;
34353;SDS011;20618;0.000;0.000;2024-01-27T10:48:35;6.78;;;1.88;;
34353;SDS011;20618;0.000;0.000;2024-01-27T10:51:08;7.10;;;2.30;;
34353;SDS011;20618;0.000;0.000;2024-01-27T10:53:36;4.53;;;1.77;;
34353;SDS011;20618;0.000;0.000;2024-01-27T10:56:04;5.00;;;1.80;;
34353;SDS011;20618;0.000;0.000;2024-01-27T10:58:34;4.97;;;2.35;;
34353;SDS011;20618;0.000;0.000;2024-01-27T11:01:09;5.78;;;2.17;;
34353;SDS011;20618;0.000;0.000;2024-01-27T11:03:39;4.03;;;1.60;;
34353;SDS011;20618;0.000;0.000;2024-01-27T11:06:06;4.95;;;1.88;;
34353;SDS011;20618;0.000;0.000;2024-01-27T11:08:34;5.43;;;2.25;;
34353;SDS011;20618;0.000;0.000;2024-01-27T11:11:00;6.28;;;2.30;;
34353;SDS011;20618;0.000;0.000;2024-01-27T11:13:30;6.30;;;1.90;;
34353;SDS011;20618;0.000;0.000;2024-01-27T11:15:57;6.72;;;2.10;;
34353;SDS011;20618;0.000;0.000;2024-01-27T11:18:24;4.97;;;1.98;;
34353;SDS011;20618;0.000;0.000;2024-01-27T11:20:53;4.72;;;1.77;;
34353;SDS011;20618;0.000;0.000;2024-01-27T11:23:19;5.75;;;2.22;;
34353;SDS011;20618;0.000;0.000;2024-01-27T11:25:46;6.20;;;2.20;;
34353;SDS011;20618;0.000;0.000;2024-01-27T11:28:12;4.88;;;2.10;;
34353;SDS011;20618;0.000;0.000;2024-01-27T11:30:40;4.53;;;2.03;;
34353;SDS011;20618;0.000;0.000;2024-01-27T11:33:10;6.65;;;2.17;;
34353;SDS011;20618;0.000;0.000;2024-01-27T11:35:36;5.65;;;1.98;;
34353;SDS011;20618;0.000;0.000;2024-01-27T11:38:02;7.28;;;1.80;;
34353;SDS011;20618;0.000;0.000;2024-01-27T11:40:29;6.25;;;2.03;;
34353;SDS011;20618;0.000;0.000;2024-01-27T11:45:22;4.18;;;2.08;;
34353;SDS011;20618;0.000;0.000;2024-01-27T11:47:48;4.72;;;1.73;;
34353;SDS011;20618;0.000;0.000;2024-01-27T11:50:16;6.35;;;2.25;;
34353;SDS011;20618;0.000;0.000;2024-01-27T11:52:43;5.63;;;2.00;;
34353;SDS011;20618;0.000;0.000;2024-01-27T11:55:10;4.75;;;1.77;;
34353;SDS011;20618;0.000;0.000;2024-01-27T11:57:36;5.05;;;1.90;;
34353;SDS011;20618;0.000;0.000;2024-01-27T12:00:02;4.70;;;2.00;;
34353;SDS011;20618;0.000;0.000;2024-01-27T12:02:29;4.40;;;1.80;;
34353;SDS011;20618;0.000;0.000;2024-01-27T12:04:55;5.10;;;2.20;;
34353;SDS011;20618;0.000;0.000;2024-01-27T12:07:21;4.38;;;1.65;;
34353;SDS011;20618;0.000;0.000;2024-01-27T12:09:50;5.38;;;1.75;;
34353;SDS011;20618;0.000;0.000;2024-01-27T12:12:17;4.88;;;1.90;;
34353;SDS011;20618;0.000;0.000;2024-01-27T12:14:47;4.40;;;1.83;;
34353;SDS011;20618;0.000;0.000;2024-01-27T12:17:13;5.97;;;2.15;;
34353;SDS011;20618;0.000;0.000;2024-01-27T12:19:50;8.48;;;1.83;;
34353;SDS011;20618;0.000;0.000;2024-01-27T12:22:26;4.28;;;2.13;;
34353;SDS011;20618;0.000;0.000;2024-01-27T12:24:52;4.22;;;1.60;;
34353;SDS011;20618;0.000;0.000;2024-01-27T12:27:19;4.55;;;1.85;;
34353;SDS011;20618;0.000;0.000;2024-01-27T12:29:49;4.72;;;1.75;;
34353;SDS011;20618;0.000;0.000;2024-01-27T12:32:18;5.32;;;1.70;;
34353;SDS011;20618;0.000;0.000;2024-01-27T12:34:44;4.63;;;1.75;;
34353;SDS011;20618;0.000;0.000;2024-01-27T12:37:12;5.45;;;1.90;;
34353;SDS011;20618;0.000;0.000;2024-01-27T12:39:45;5.05;;;1.88;;
34353;SDS011;20618;0.000;0.000;2024-01-27T12:42:11;4.95;;;2.00;;
34353;SDS011;20618;0.000;0.000;2024-01-27T12:44:37;4.15;;;1.55;;
34353;SDS011;20618;0.000;0.000;2024-01-27T12:47:03;5.43;;;2.08;;
34353;SDS011;20618;0.000;0.000;2024-01-27T12:49:30;6.00;;;2.00;;
34353;SDS011;20618;0.000;0.000;2024-01-27T12:51:56;3.75;;;1.77;;
34353;SDS011;20618;0.000;0.000;2024-01-27T12:54:22;4.80;;;2.15;;
34353;SDS011;20618;0.000;0.000;2024-01-27T12:56:48;5.18;;;1.92;;
34353;SDS011;20618;0.000;0.000;2024-01-27T12:59:14;4.95;;;2.00;;
34353;SDS011;20618;0.000;0.000;2024-01-27T13:01:41;4.97;;;2.15;;
34353;SDS011;20618;0.000;0.000;2024-01-27T13:04:07;4.53;;;2.00;;
34353;SDS011;20618;0.000;0.000;2024-01-27T13:06:33;5.22;;;2.22;;
34353;SDS011;20618;0.000;0.000;2024-01-27T13:08:59;4.85;;;2.08;;
34353;SDS011;20618;0.000;0.000;2024-01-27T13:11:25;5.68;;;2.08;;
34353;SDS011;20618;0.000;0.000;2024-01-27T13:13:52;4.30;;;1.83;;
34353;SDS011;20618;0.000;0.000;2024-01-27T13:16:18;4.85;;;1.98;;
34353;SDS011;20618;0.000;0.000;2024-01-27T13:18:44;7.38;;;1.92;;
34353;SDS011;20618;0.000;0.000;2024-01-27T13:21:11;7.43;;;1.85;;
34353;SDS011;20618;0.000;0.000;2024-01-27T13:23:37;5.50;;;1.88;;
34353;SDS011;20618;0.000;0.000;2024-01-27T13:26:03;5.53;;;1.98;;
34353;SDS011;20618;0.000;0.000;2024-01-27T13:28:30;5.38;;;2.05;;
34353;SDS011;20618;0.000;0.000;2024-01-27T13:30:56;4.72;;;1.73;;
34353;SDS011;20618;0.000;0.000;2024-01-27T13:33:23;4.15;;;1.75;;
34353;SDS011;20618;0.000;0.000;2024-01-27T13:35:49;3.58;;;1.60;;
34353;SDS011;20618;0.000;0.000;2024-01-27T13:38:15;5.80;;;2.05;;
34353;SDS011;20618;0.000;0.000;2024-01-27T13:40:48;6.30;;;2.30;;
34353;SDS011;20618;0.000;0.000;2024-01-27T13:43:14;4.68;;;1.65;;
34353;SDS011;20618;0.000;0.000;2024-01-27T13:45:40;4.40;;;1.60;;
34353;SDS011;20618;0.000;0.000;2024-01-27T13:48:07;3.72;;;1.85;;
34353;SDS011;20618;0.000;0.000;2024-01-27T13:50:33;4.78;;;1.77;;
34353;SDS011;20618;0.000;0.000;2024-01-27T13:52:59;5.32;;;2.08;;
34353;SDS011;20618;0.000;0.000;2024-01-27T13:55:25;4.95;;;1.95;;
34353;SDS011;20618;0.000;0.000;2024-01-27T13:57:52;6.65;;;2.35;;
34353;SDS011;20618;0.000;0.000;2024-01-27T14:00:19;4.82;;;1.92;;
34353;SDS011;20618;0.000;0.000;2024-01-27T14:02:46;5.38;;;1.98;;
34353;SDS011;20618;0.000;0.000;2024-01-27T14:05:12;3.55;;;1.95;;
34353;SDS011;20618;0.000;0.000;2024-01-27T14:07:38;5.63;;;2.03;;
34353;SDS011;20618;0.000;0.000;2024-01-27T14:10:05;4.95;;;1.98;;
34353;SDS011;20618;0.000;0.000;2024-01-27T14:12:31;6.38;;;2.03;;
34353;SDS011;20618;0.000;0.000;2024-01-27T14:15:04;4.68;;;1.80;;
34353;SDS011;20618;0.000;0.000;2024-01-27T14:17:32;5.53;;;2.00;;
34353;SDS011;20618;0.000;0.000;2024-01-27T14:20:00;5.93;;;2.08;;
34353;SDS011;20618;0.000;0.000;2024-01-27T14:22:26;4.40;;;1.90;;
34353;SDS011;20618;0.000;0.000;2024-01-27T14:24:52;5.75;;;2.00;;
34353;SDS011;20618;0.000;0.000;2024-01-27T14:27:18;4.70;;;1.73;;
34353;SDS011;20618;0.000;0.000;2024-01-27T14:29:51;5.88;;;1.88;;
34353;SDS011;20618;0.000;0.000;2024-01-27T14:32:18;4.68;;;2.08;;
34353;SDS011;20618;0.000;0.000;2024-01-27T14:34:44;7.22;;;1.90;;
34353;SDS011;20618;0.000;0.000;2024-01-27T14:37:10;3.63;;;1.88;;
34353;SDS011;20618;0.000;0.000;2024-01-27T14:39:38;3.78;;;1.63;;
34353;SDS011;20618;0.000;0.000;2024-01-27T14:42:09;4.45;;;2.08;;
34353;SDS011;20618;0.000;0.000;2024-01-27T14:44:36;5.28;;;1.70;;
34353;SDS011;20618;0.000;0.000;2024-01-27T14:47:02;6.03;;;2.15;;
34353;SDS011;20618;0.000;0.000;2024-01-27T14:49:28;4.65;;;1.80;;
34353;SDS011;20618;0.000;0.000;2024-01-27T14:51:55;4.57;;;2.00;;
34353;SDS011;20618;0.000;0.000;2024-01-27T14:54:21;5.38;;;1.58;;
34353;SDS011;20618;0.000;0.000;2024-01-27T14:56:47;4.30;;;1.80;;
34353;SDS011;20618;0.000;0.000;2024-01-27T14:59:13;4.25;;;2.22;;